EDDC/DRS METAR and TAF weather

Enter ICAO airport designator
Station Type Date Time Source
EDDC METAR 2019/09/20 20:20 UTC NOAA

EDDC 202020Z 21003KT CAVOK 10/04 Q1027


Station Type Date Time Source
EDDC Decoded METAR 2019/09/20 20:20 UTC NOAA

Dresden-Klotzsche, Germany (EDDC) 51-08N 013-45E 232M
Sep 20, 2019 - 04:20 PM EDT / 2019.09.20 2020 UTC
Wind: from the SSW (210 degrees) at 3 MPH (3 KT):0
Visibility: greater than 7 mile(s):0
Temperature: 50 F (10 C)
Dew Point: 39 F (4 C)
Relative Humidity: 66%
Pressure (altimeter): 30.33 in. Hg (1027 hPa)
ob: EDDC 202020Z 21003KT CAVOK 10/04 Q1027
cycle: 20

Station Type Date Time Source
EDDC TAF 2019/09/20 18:27 UTC NOAA

TAF EDDC 201700Z 2018/2118 30004KT CAVOK
BECMG 2019/2022 17006KT

Example: see airport list